createdAt,value
2018-03-22T00:00:07.179Z,67.75
2018-03-22T00:00:47.616Z,67.56
2018-03-22T00:01:28.017Z,67.75
2018-03-22T00:02:08.410Z,67.56
2018-03-22T00:02:48.824Z,66.89
2018-03-22T00:03:29.190Z,67.75
2018-03-22T00:04:09.579Z,67.65
2018-03-22T00:04:49.983Z,67.65
2018-03-22T00:05:30.405Z,67.37
2018-03-22T00:06:10.791Z,67.56
2018-03-22T00:06:51.217Z,67.65
2018-03-22T00:07:31.590Z,67.65
2018-03-22T00:08:12.005Z,67.75
2018-03-22T00:08:52.402Z,67.65
2018-03-22T00:09:32.790Z,68.29
2018-03-22T00:10:13.180Z,68.32
2018-03-22T00:10:53.588Z,68.76
2018-03-22T00:11:33.988Z,68.57
2018-03-22T00:12:14.359Z,68.6
2018-03-22T00:12:54.802Z,68.57
2018-03-22T00:13:35.167Z,68.7
2018-03-22T00:14:15.607Z,68.95
2018-03-22T00:14:55.965Z,69.23
2018-03-22T00:15:36.428Z,69.13
2018-03-22T00:16:16.789Z,68.98
2018-03-22T00:16:57.196Z,69.17
2018-03-22T00:17:37.614Z,69.17
2018-03-22T00:18:17.988Z,69.08
2018-03-22T00:18:58.370Z,68.89
2018-03-22T00:19:38.830Z,69.08
2018-03-22T00:20:19.252Z,68.32
2018-03-22T00:20:59.667Z,68.6
2018-03-22T00:21:40.051Z,68.51
2018-03-22T00:22:20.439Z,68.41
2018-03-22T00:23:00.844Z,67.56
2018-03-22T00:23:41.185Z,67.46
2018-03-22T00:24:21.625Z,67.65
2018-03-22T00:25:02.001Z,67.56
2018-03-22T00:25:42.401Z,68.32
2018-03-22T00:26:22.757Z,68.51
2018-03-22T00:27:03.133Z,68.79
2018-03-22T00:27:43.551Z,68.89
2018-03-22T00:28:23.974Z,68.79
2018-03-22T00:29:04.419Z,69.27
2018-03-22T00:29:44.776Z,68.89
2018-03-22T00:30:25.201Z,69.36
2018-03-22T00:31:05.592Z,69.46
2018-03-22T00:31:46.022Z,69.55
2018-03-22T00:32:26.426Z,69.55
2018-03-22T00:33:06.813Z,69.74
2018-03-22T00:33:47.208Z,69.74
2018-03-22T00:34:27.597Z,69.93
2018-03-22T00:35:07.999Z,70.03
2018-03-22T00:35:48.351Z,69.74
2018-03-22T00:40:41.119Z,70.03
2018-03-22T00:41:21.454Z,70.21
2018-03-22T00:42:01.848Z,70.21
2018-03-22T00:42:42.265Z,69.93
2018-03-22T00:43:22.722Z,69.74
2018-03-22T00:44:03.099Z,70.31
2018-03-22T00:44:43.487Z,70.21
2018-03-22T00:45:23.860Z,70.5
2018-03-22T00:46:04.261Z,70.21
2018-03-22T00:46:44.660Z,70.03
2018-03-22T00:47:25.053Z,70.5
2018-03-22T00:48:05.485Z,70.5
2018-03-22T00:48:45.847Z,70.4
2018-03-22T00:49:26.259Z,70.31
2018-03-22T00:50:06.749Z,70.12
2018-03-22T00:50:47.118Z,70.31
2018-03-22T00:51:27.523Z,69.93
2018-03-22T00:55:18.036Z,70.31
2018-03-22T00:55:58.433Z,70.4
2018-03-22T00:56:38.795Z,70.78
2018-03-22T00:57:19.247Z,70.4
2018-03-22T00:57:59.673Z,70.69
2018-03-22T00:58:40.032Z,70.78
2018-03-22T00:59:20.443Z,70.47
2018-03-22T01:00:00.813Z,70.98
2018-03-22T01:00:41.239Z,70.69
2018-03-22T01:01:21.604Z,70.69
2018-03-22T01:02:01.954Z,71.26
2018-03-22T01:02:42.360Z,71.36
2018-03-22T01:03:22.730Z,71.32
2018-03-22T01:04:03.128Z,70.59
2018-03-22T01:04:43.568Z,70.5
2018-03-22T01:05:23.909Z,70.5
2018-03-22T01:06:04.337Z,70.69
2018-03-22T01:06:44.781Z,70.59
2018-03-22T01:07:25.152Z,70.21
2018-03-22T01:08:05.586Z,70.4
2018-03-22T01:08:45.994Z,70.21
2018-03-22T01:09:26.377Z,70.69
2018-03-22T01:10:06.759Z,70.5
2018-03-22T01:10:47.243Z,71.26
2018-03-22T01:11:27.550Z,71.26
2018-03-22T01:12:08.007Z,71.26
2018-03-22T01:12:48.375Z,70.78
2018-03-22T01:13:28.798Z,70.5
2018-03-22T01:14:09.182Z,70.69
2018-03-22T01:14:49.598Z,70.88
2018-03-22T01:15:30.002Z,70.21
2018-03-22T01:16:10.412Z,70.98
2018-03-22T01:16:50.816Z,70.31
2018-03-22T01:17:31.184Z,70.31
2018-03-22T01:18:11.591Z,70.5
2018-03-22T01:18:51.976Z,70.03
2018-03-22T01:19:32.423Z,70.12
2018-03-22T01:20:12.837Z,69.93
2018-03-22T01:20:53.227Z,69.46
2018-03-22T01:21:33.610Z,69.36
2018-03-22T01:22:14.018Z,69.36
2018-03-22T01:22:54.390Z,69.55
2018-03-22T01:23:34.814Z,69.65
2018-03-22T01:24:15.202Z,69.36
2018-03-22T01:24:55.585Z,69.08
2018-03-22T01:25:36.007Z,69.17
2018-03-22T01:26:16.390Z,69.3
2018-03-22T01:26:56.782Z,69.08
2018-03-22T01:27:37.204Z,69.17
2018-03-22T01:28:17.586Z,69.27
2018-03-22T01:28:58.016Z,69.08
2018-03-22T01:29:38.433Z,69.27
2018-03-22T01:30:18.817Z,69.17
2018-03-22T01:30:59.216Z,69.27
2018-03-22T01:31:39.603Z,69.27
2018-03-22T01:32:20.003Z,69.27
2018-03-22T01:33:00.410Z,69.65
2018-03-22T01:33:40.833Z,69.46
2018-03-22T01:34:21.206Z,68.92
2018-03-22T01:35:01.572Z,69.08
2018-03-22T01:35:41.964Z,68.89
2018-03-22T01:36:22.378Z,69.21
2018-03-22T01:37:02.797Z,69.08
2018-03-22T01:37:43.196Z,68.92
2018-03-22T01:38:23.577Z,69.27
2018-03-22T01:39:03.968Z,68.54
2018-03-22T01:39:44.437Z,68.32
2018-03-22T01:40:24.789Z,68.35
2018-03-22T01:41:05.196Z,68.54
2018-03-22T01:41:45.602Z,68.6
2018-03-22T01:42:25.993Z,68.64
2018-03-22T01:43:06.401Z,68.73
2018-03-22T01:43:46.839Z,68.73
2018-03-22T01:44:27.178Z,68.44
2018-03-22T01:45:07.584Z,68.07
2018-03-22T01:45:48.018Z,67.79
2018-03-22T01:46:28.397Z,67.69
2018-03-22T01:47:08.800Z,67.59
2018-03-22T01:47:49.180Z,67.59
2018-03-22T01:48:29.574Z,67.21
2018-03-22T01:49:09.932Z,67.12
2018-03-22T01:49:50.351Z,67.5
2018-03-22T01:50:30.748Z,67.02
2018-03-22T01:51:11.126Z,66.64
2018-03-22T01:53:09.037Z,65.5
2018-03-22T01:53:49.406Z,65.22
2018-03-22T01:54:29.847Z,64.94
2018-03-22T01:55:10.221Z,64.84
2018-03-22T01:55:50.628Z,64.94
2018-03-22T01:56:31.016Z,64.78
2018-03-22T01:57:11.425Z,64.69
2018-03-22T01:57:51.809Z,64.4
2018-03-22T01:58:32.193Z,64.11
2018-03-22T01:59:12.607Z,64.59
2018-03-22T01:59:52.962Z,64.49
2018-03-22T02:00:33.396Z,64.11
2018-03-22T02:01:13.750Z,63.83
2018-03-22T02:01:54.183Z,63.64
2018-03-22T02:02:34.552Z,63.54
2018-03-22T02:03:14.950Z,63.73
2018-03-22T02:03:55.350Z,63.54
2018-03-22T02:04:35.729Z,63.45
2018-03-22T02:05:16.126Z,62.97
2018-03-22T02:05:56.528Z,63.07
2018-03-22T02:06:36.927Z,62.78
2018-03-22T02:07:17.318Z,62.78
2018-03-22T02:07:57.715Z,62.88
2018-03-22T02:08:38.142Z,62.88
2018-03-22T02:09:18.555Z,62.97
2018-03-22T02:09:58.949Z,62.78
2018-03-22T02:10:39.315Z,62.88
2018-03-22T02:11:19.711Z,62.59
2018-03-22T02:12:00.135Z,62.5
2018-03-22T02:12:40.515Z,62.31
2018-03-22T02:13:20.956Z,62.31
2018-03-22T02:14:01.334Z,62.5
2018-03-22T02:14:41.709Z,62.69
2018-03-22T02:15:22.103Z,62.31
2018-03-22T02:16:02.530Z,62.4
2018-03-22T02:16:42.896Z,62.59
2018-03-22T02:17:23.285Z,62.5
2018-03-22T02:18:03.623Z,62.97
2018-03-22T02:18:44.072Z,62.21
2018-03-22T02:19:24.470Z,62.97
2018-03-22T02:20:04.866Z,62.69
2018-03-22T02:20:45.276Z,62.59
2018-03-22T02:21:25.652Z,62.5
2018-03-22T02:22:06.071Z,62.5
2018-03-22T02:22:46.470Z,62.59
2018-03-22T02:23:26.851Z,62.78
2018-03-22T02:24:07.266Z,62.59
2018-03-22T02:24:47.654Z,62.4
2018-03-22T02:25:28.059Z,62.72
2018-03-22T02:26:08.432Z,62.31
2018-03-22T02:26:48.882Z,62.5
2018-03-22T02:27:29.324Z,62.78
2018-03-22T02:28:09.745Z,62.31
2018-03-22T02:28:50.134Z,62.21
2018-03-22T02:30:48.042Z,62.53
2018-03-22T02:31:28.444Z,62.43
2018-03-22T02:32:08.873Z,62.43
2018-03-22T02:32:49.265Z,62.05
2018-03-22T02:33:29.658Z,62.05
2018-03-22T02:34:10.042Z,61.77
2018-03-22T02:34:50.444Z,62.15
2018-03-22T02:35:30.867Z,62.15
2018-03-22T02:36:11.246Z,62.02
2018-03-22T02:36:51.676Z,62.12
2018-03-22T02:37:32.067Z,62.02
2018-03-22T02:38:12.486Z,62.34
2018-03-22T02:38:52.913Z,62.53
2018-03-22T02:39:33.306Z,62.43
2018-03-22T02:40:13.651Z,62.4
2018-03-22T02:40:54.093Z,62.34
2018-03-22T02:41:34.468Z,62.4
2018-03-22T02:42:14.859Z,62.15
2018-03-22T02:42:55.302Z,62.24
2018-03-22T02:43:35.673Z,62.34
2018-03-22T02:44:16.079Z,62.62
2018-03-22T02:44:56.457Z,62.53
2018-03-22T02:45:36.890Z,61.96
2018-03-22T02:46:17.288Z,62.05
2018-03-22T02:46:57.695Z,62.05
2018-03-22T02:47:38.106Z,62.05
2018-03-22T02:48:18.488Z,61.87
2018-03-22T02:48:58.855Z,62.15
2018-03-22T02:49:39.275Z,62.05
2018-03-22T02:50:19.635Z,61.96
2018-03-22T02:51:00.043Z,61.96
2018-03-22T02:51:40.450Z,62.15
2018-03-22T02:52:20.859Z,62.15
2018-03-22T02:53:01.242Z,62.02
2018-03-22T02:53:41.654Z,61.96
2018-03-22T02:54:22.058Z,62.34
2018-03-22T02:55:02.505Z,62.05
2018-03-22T02:55:42.881Z,62.05
2018-03-22T02:56:23.297Z,62.05
2018-03-22T02:57:03.694Z,62.34
2018-03-22T02:57:44.083Z,61.96
2018-03-22T02:58:24.486Z,62.24
2018-03-22T02:59:04.866Z,62.72
2018-03-22T02:59:45.279Z,62.05
2018-03-22T03:00:25.696Z,61.96
2018-03-22T03:01:06.098Z,62.15
2018-03-22T03:01:46.499Z,62.15
2018-03-22T03:02:26.876Z,62.05
2018-03-22T03:03:07.343Z,61.96
2018-03-22T03:03:47.736Z,62.15
2018-03-22T03:04:28.155Z,62.05
2018-03-22T03:05:08.559Z,61.87
2018-03-22T03:05:48.913Z,60.91
2018-03-22T03:06:29.314Z,61.1
2018-03-22T03:07:09.735Z,61.39
2018-03-22T03:07:50.107Z,60.91
2018-03-22T03:08:30.516Z,60.91
2018-03-22T03:09:10.895Z,61.1
2018-03-22T03:09:51.354Z,60.91
2018-03-22T03:10:31.748Z,60.91
2018-03-22T03:11:12.129Z,60.91
2018-03-22T03:11:52.550Z,60.44
2018-03-22T03:12:32.943Z,60.44
2018-03-22T03:13:13.333Z,59.68
2018-03-22T03:13:53.747Z,59.8
2018-03-22T03:14:34.126Z,60.18
2018-03-22T03:15:14.494Z,59.61
2018-03-22T03:15:54.890Z,59.23
2018-03-22T03:16:35.302Z,59.14
2018-03-22T03:17:15.728Z,59.52
2018-03-22T03:17:56.130Z,59.05
2018-03-22T03:18:36.510Z,58.95
2018-03-22T03:19:17.025Z,59.33
2018-03-22T03:19:57.355Z,59.33
2018-03-22T03:20:37.776Z,59.71
2018-03-22T03:21:18.224Z,59.52
2018-03-22T03:21:58.599Z,59.42
2018-03-22T03:22:38.986Z,59.33
2018-03-22T03:23:19.409Z,59.14
2018-03-22T03:23:59.864Z,59.61
2018-03-22T03:24:40.319Z,59.8
2018-03-22T03:25:20.695Z,59.8
2018-03-22T03:26:01.097Z,59.71
2018-03-22T03:26:41.493Z,59.71
2018-03-22T03:27:21.883Z,59.42
2018-03-22T03:28:02.287Z,58.66
2018-03-22T03:28:42.738Z,58.95
2018-03-22T03:29:23.087Z,58.88
2018-03-22T03:30:03.525Z,58.57
2018-03-22T03:30:43.927Z,58.5
2018-03-22T03:31:24.327Z,58.85
2018-03-22T03:32:04.702Z,58.85
2018-03-22T03:32:45.137Z,58.95
2018-03-22T03:33:25.554Z,59.52
2018-03-22T03:34:05.923Z,59.52
2018-03-22T03:34:46.314Z,60.18
2018-03-22T03:35:26.720Z,60.18
2018-03-22T03:36:07.141Z,59.9
2018-03-22T03:36:47.541Z,60.18
2018-03-22T03:37:27.961Z,60.18
2018-03-22T03:38:08.362Z,59.8
2018-03-22T03:38:48.746Z,59.99
2018-03-22T03:39:29.127Z,59.99
2018-03-22T03:40:09.531Z,60.47
2018-03-22T03:40:49.924Z,60.09
2018-03-22T03:41:30.344Z,59.8
2018-03-22T03:42:10.706Z,59.8
2018-03-22T03:42:51.107Z,60.18
2018-03-22T03:43:31.498Z,60.18
2018-03-22T03:44:11.889Z,60.02
2018-03-22T03:44:52.323Z,60.12
2018-03-22T03:45:32.750Z,60.5
2018-03-22T03:46:13.082Z,60.41
2018-03-22T03:46:53.468Z,60.28
2018-03-22T03:47:33.901Z,60.38
2018-03-22T03:48:14.306Z,60.38
2018-03-22T03:48:54.687Z,60.94
2018-03-22T03:49:35.125Z,60.85
2018-03-22T03:50:15.487Z,60.85
2018-03-22T03:52:03.291Z,60.47
2018-03-22T03:52:43.628Z,60.47
2018-03-22T03:53:24.049Z,61.13
2018-03-22T03:54:04.460Z,61.04
2018-03-22T03:54:44.889Z,61.23
2018-03-22T03:55:25.227Z,61.23
2018-03-22T03:56:05.658Z,60.94
2018-03-22T03:56:46.067Z,61.42
2018-03-22T03:57:26.444Z,61.32
2018-03-22T03:58:06.864Z,61.9
2018-03-22T03:58:47.255Z,61.42
2018-03-22T03:59:27.641Z,61.52
2018-03-22T04:00:08.062Z,61.61
2018-03-22T04:00:48.439Z,61.8
2018-03-22T04:01:28.841Z,61.9
2018-03-22T04:02:09.266Z,61.9
2018-03-22T04:02:49.673Z,61.99
2018-03-22T04:03:30.076Z,62.65
2018-03-22T04:04:10.464Z,62.56
2018-03-22T04:04:50.855Z,62.65
2018-03-22T04:05:31.251Z,62.65
2018-03-22T04:06:11.592Z,62.56
2018-03-22T04:06:52.019Z,62.65
2018-03-22T04:51:23.280Z,66.8
2018-03-22T04:52:03.628Z,67
2018-03-22T04:52:44.019Z,67.47
2018-03-22T04:53:24.413Z,67.19
2018-03-22T04:54:04.830Z,67.19
2018-03-22T04:54:45.228Z,67.57
2018-03-22T04:55:25.629Z,67.19
2018-03-22T04:56:06.034Z,67.66
2018-03-22T04:56:46.441Z,67.76
2018-03-22T04:57:26.810Z,67.47
2018-03-22T04:58:07.218Z,67.66
2018-03-22T04:58:47.657Z,67.76
2018-03-22T04:59:28.008Z,68.04
2018-03-22T05:00:08.433Z,68.23
2018-03-22T05:00:48.874Z,68.42
2018-03-22T05:01:29.247Z,68.23
2018-03-22T05:02:09.695Z,68.42
2018-03-22T05:02:50.104Z,68.42
2018-03-22T05:03:30.510Z,68.8
2018-03-22T05:04:10.925Z,69.18
2018-03-22T05:04:51.330Z,68.61
2018-03-22T05:05:31.780Z,68.71
2018-03-22T05:06:12.142Z,68.33
2018-03-22T05:06:52.643Z,67.66
2018-03-22T05:07:32.940Z,67.66
2018-03-22T05:08:13.345Z,67.66
2018-03-22T05:08:53.776Z,67.66
2018-03-22T05:09:34.247Z,67.94
2018-03-22T05:10:14.566Z,67.76
2018-03-22T05:10:54.996Z,67.57
2018-03-22T05:11:35.355Z,67.94
2018-03-22T05:12:15.785Z,67.85
2018-03-22T05:12:56.191Z,67.79
2018-03-22T05:13:36.567Z,67.47
2018-03-22T05:14:16.976Z,67.19
2018-03-22T05:14:57.389Z,67.09
2018-03-22T05:15:37.770Z,67.28
2018-03-22T05:16:18.168Z,67.28
2018-03-22T05:16:58.593Z,67.57
2018-03-22T05:17:38.948Z,67.76
2018-03-22T05:18:19.396Z,67.6
2018-03-22T05:18:59.788Z,67.03
2018-03-22T05:19:40.259Z,66.9
2018-03-22T05:20:20.571Z,67.28
2018-03-22T05:21:00.962Z,67
2018-03-22T05:21:41.388Z,67.85
2018-03-22T05:22:21.852Z,67.76
2018-03-22T05:23:02.648Z,67.85
2018-03-22T05:23:43.069Z,68.42
2018-03-22T05:24:23.474Z,68.36
2018-03-22T05:25:03.871Z,67.69
2018-03-22T05:25:44.306Z,67.5
2018-03-22T05:26:24.678Z,67.32
2018-03-22T05:27:05.070Z,66.46
2018-03-22T05:27:45.542Z,66.46
2018-03-22T05:28:26.014Z,66.36
2018-03-22T05:29:13.277Z,65.51
2018-03-22T05:29:53.723Z,65.99
2018-03-22T05:30:34.171Z,65.41
2018-03-22T05:31:14.534Z,65.99
2018-03-22T05:31:54.940Z,66.65
2018-03-22T05:32:35.323Z,65.99
2018-03-22T05:33:15.703Z,65.13
2018-03-22T05:33:56.145Z,65.32
2018-03-22T05:34:36.518Z,65.7
2018-03-22T05:35:16.885Z,65.7
2018-03-22T05:35:57.346Z,66.17
2018-03-22T05:36:37.700Z,65.32
2018-03-22T05:37:18.122Z,66.08
2018-03-22T05:37:58.574Z,66.55
2018-03-22T05:38:38.937Z,66.65
2018-03-22T05:39:19.340Z,66.46
2018-03-22T05:39:59.754Z,66.46
2018-03-22T05:40:40.222Z,67.03
2018-03-22T05:41:20.602Z,67.79
2018-03-22T05:42:01.019Z,67.32
2018-03-22T05:42:41.418Z,67.22
2018-03-22T05:43:21.823Z,66.55
2018-03-22T05:44:02.188Z,67.22
2018-03-22T05:44:42.621Z,67.69
2018-03-22T05:45:23.054Z,67.69
2018-03-22T05:46:03.462Z,67.22
2018-03-22T05:46:43.829Z,68.07
2018-03-22T05:47:24.212Z,67.79
2018-03-22T05:48:04.686Z,67.79
2018-03-22T05:48:45.046Z,67.76
2018-03-22T05:49:25.501Z,68.99
2018-03-22T05:50:05.895Z,69.18
2018-03-22T05:50:46.262Z,69.37
2018-03-22T05:51:26.627Z,69.85
2018-03-22T05:52:07.063Z,70.13
2018-03-22T05:52:47.453Z,70.32
2018-03-22T05:53:27.899Z,71.56
2018-03-22T05:54:08.335Z,71.66
2018-03-22T05:54:48.710Z,71.37
2018-03-22T05:55:29.124Z,71.37
2018-03-22T05:56:09.551Z,71.56
2018-03-22T05:56:50.014Z,71.46
2018-03-22T05:57:30.467Z,71.37
2018-03-22T05:58:10.844Z,70.99
2018-03-22T05:58:51.246Z,71.46
2018-03-22T05:59:31.702Z,71.18
2018-03-22T06:00:12.053Z,70.61
2018-03-22T06:00:52.507Z,70.51
2018-03-22T06:01:32.859Z,70.89
2018-03-22T06:02:13.250Z,71.08
2018-03-22T06:02:53.651Z,70.79
2018-03-22T06:03:34.049Z,71.18
2018-03-22T06:04:14.516Z,71.66
2018-03-22T06:04:54.892Z,72.7
2018-03-22T06:05:35.259Z,72.6
2018-03-22T06:06:15.633Z,73.08
2018-03-22T06:06:56.007Z,72.38
2018-03-22T06:07:36.486Z,72.89
2018-03-22T06:08:16.879Z,72.99
2018-03-22T06:08:57.303Z,72.41
2018-03-22T06:09:37.695Z,71.94
2018-03-22T06:10:18.126Z,72.32
2018-03-22T06:10:58.562Z,72.41
2018-03-22T06:11:38.977Z,73.18
2018-03-22T06:12:19.374Z,72.32
2018-03-22T06:12:59.786Z,72.7
2018-03-22T06:13:40.256Z,72.22
2018-03-22T06:14:20.668Z,72.51
2018-03-22T06:15:01.065Z,72.13
2018-03-22T06:15:41.601Z,72.13
2018-03-22T06:16:22.036Z,72.6
2018-03-22T06:17:02.367Z,72.89
2018-03-22T06:17:42.808Z,73.08
2018-03-22T06:18:23.203Z,72.47
2018-03-22T06:19:03.630Z,72.7
2018-03-22T06:19:44.022Z,72.79
2018-03-22T06:20:24.436Z,73.14
2018-03-22T06:21:04.929Z,73.42
2018-03-22T06:21:45.429Z,74.03
2018-03-22T06:22:25.853Z,73.93
2018-03-22T06:23:06.304Z,73.61
2018-03-22T06:23:46.719Z,73.52
2018-03-22T06:24:27.154Z,75.07
2018-03-22T06:25:08.263Z,75.6
2018-03-22T06:25:48.668Z,74.94
2018-03-22T06:26:29.077Z,75.23
2018-03-22T06:27:09.538Z,76.08
2018-03-22T06:27:49.936Z,75.79
2018-03-22T06:28:30.414Z,76.18
2018-03-22T06:29:10.818Z,76.93
2018-03-22T06:29:51.237Z,76.65
2018-03-22T06:30:31.652Z,76.75
2018-03-22T06:31:12.061Z,76.27
2018-03-22T06:31:52.450Z,75.32
2018-03-22T06:32:33.116Z,76.08
2018-03-22T06:33:13.577Z,76.37
2018-03-22T06:33:54.342Z,76.46
2018-03-22T06:34:35.300Z,75.7
2018-03-22T06:35:15.808Z,76.27
2018-03-22T06:37:37.366Z,76.18
2018-03-22T06:38:18.418Z,75.93
2018-03-22T06:38:58.748Z,75.23
2018-03-22T06:39:39.143Z,75.23
2018-03-22T06:40:19.626Z,75.99
2018-03-22T06:41:00.706Z,77.03
2018-03-22T06:41:41.976Z,77.22
2018-03-22T06:42:26.234Z,78.64
2018-03-22T06:43:09.331Z,78.36
2018-03-22T06:43:50.071Z,78.17
2018-03-22T06:44:30.546Z,79.03
2018-03-22T06:45:11.711Z,78.36
2018-03-22T06:45:52.038Z,78.08
2018-03-22T06:46:35.246Z,78.08
2018-03-22T06:47:16.467Z,78.17
2018-03-22T06:48:00.244Z,78.27
2018-03-22T06:48:47.108Z,77.89
2018-03-22T06:49:33.229Z,77.66
2018-03-22T06:50:13.890Z,78.32
2018-03-22T06:50:56.130Z,78.51
2018-03-22T06:51:38.353Z,78.83
2018-03-22T06:52:18.824Z,79.12
2018-03-22T06:52:59.501Z,79.5
2018-03-22T06:53:40.484Z,78.93
2018-03-22T06:54:23.334Z,79.03
2018-03-22T06:55:03.821Z,78.74
2018-03-22T06:55:47.158Z,79.31
2018-03-22T06:56:28.407Z,79.31
2018-03-22T06:57:09.751Z,78.83
2018-03-22T06:57:50.416Z,78.45
2018-03-22T06:58:31.365Z,77.79
2018-03-22T06:59:11.842Z,77.89
2018-03-22T06:59:53.138Z,78.36
2018-03-22T07:00:34.584Z,78.36
2018-03-22T07:01:15.142Z,78.64
2018-03-22T07:01:55.711Z,78.93
2018-03-22T07:02:37.985Z,78.93
2018-03-22T07:03:19.674Z,79.12
2018-03-22T07:04:00.363Z,78.27
2018-03-22T07:04:40.992Z,78.36
2018-03-22T07:05:22.470Z,78.08
2018-03-22T07:06:02.861Z,78.36
2018-03-22T07:06:43.900Z,78.08
2018-03-22T07:07:25.432Z,78.17
2018-03-22T07:08:06.715Z,78.36
2018-03-22T07:08:50.440Z,78.36
2018-03-22T07:09:30.948Z,78.83
2018-03-22T07:10:12.390Z,78.45
2018-03-22T07:10:53.096Z,78.83
2018-03-22T07:11:33.942Z,78.55
2018-03-22T07:12:14.486Z,79.03
2018-03-22T07:12:57.551Z,79.03
2018-03-22T07:13:37.930Z,78.93
2018-03-22T07:14:19.862Z,78.74
2018-03-22T07:15:00.517Z,78.83
2018-03-22T07:15:40.900Z,78.27
2018-03-22T07:16:22.834Z,78.36
2018-03-22T07:17:04.692Z,78.27
2018-03-22T07:17:45.197Z,78.36
2018-03-22T07:18:25.633Z,78.55
2018-03-22T07:19:06.673Z,78.27
2018-03-22T07:19:48.246Z,79.03
2018-03-22T07:20:30.447Z,79.5
2018-03-22T07:21:11.987Z,79.97
2018-03-22T07:21:52.604Z,79.79
2018-03-22T07:22:33.899Z,79.79
2018-03-22T07:23:16.607Z,80.45
2018-03-22T07:23:57.529Z,80.45
2018-03-22T07:24:40.244Z,79.97
2018-03-22T07:25:21.472Z,79.97
2018-03-22T07:26:02.975Z,79.79
2018-03-22T07:26:43.378Z,79.97
2018-03-22T07:27:23.875Z,80.45
2018-03-22T07:28:15.615Z,80.07
2018-03-22T07:28:56.723Z,80.16
2018-03-22T07:29:38.634Z,80.45
2018-03-22T07:30:19.464Z,80.74
2018-03-22T07:31:01.951Z,80.35
2018-03-22T07:31:42.902Z,81.21
2018-03-22T07:32:24.628Z,81.02
2018-03-22T07:33:05.271Z,81.4
2018-03-22T07:33:45.764Z,81.78
2018-03-22T07:34:27.173Z,81.3
2018-03-22T07:35:08.228Z,81.12
2018-03-22T07:35:48.951Z,80.74
2018-03-22T07:36:30.607Z,80.26
2018-03-22T07:37:10.960Z,80.64
2018-03-22T07:37:52.879Z,80.64
2018-03-22T07:38:33.787Z,80.74
2018-03-22T07:39:14.898Z,80.35
2018-03-22T07:39:57.090Z,79.79
2018-03-22T07:40:38.232Z,79.88
2018-03-22T07:41:19.131Z,79.97
2018-03-22T07:41:59.544Z,79.03
2018-03-22T07:42:40.160Z,80.16
2018-03-22T07:43:20.902Z,80.64
2018-03-22T07:44:14.015Z,80.74
2018-03-22T07:44:55.586Z,80.64
2018-03-22T07:45:38.643Z,80.64
2018-03-22T07:46:22.030Z,80.74
2018-03-22T07:47:02.535Z,79.6
2018-03-22T07:47:44.699Z,80.16
2018-03-22T07:48:25.955Z,80.93
2018-03-22T07:49:07.608Z,80.64
2018-03-22T07:49:49.803Z,80.45
2018-03-22T07:50:33.779Z,80.83
2018-03-22T07:51:15.117Z,81.21
2018-03-22T07:51:55.665Z,80.64
2018-03-22T07:52:38.437Z,80.45
2018-03-22T07:53:19.054Z,80.26
2018-03-22T07:54:00.487Z,80.55
2018-03-22T07:54:41.424Z,80.55
2018-03-22T07:55:22.993Z,80.74
2018-03-22T07:56:04.585Z,80.74
2018-03-22T07:56:46.199Z,81.12
2018-03-22T07:57:27.344Z,81.12
2018-03-22T07:58:07.955Z,80.74
2018-03-22T07:58:48.809Z,79.88
2018-03-22T07:59:29.426Z,80.26
2018-03-22T08:00:10.437Z,79.88
2018-03-22T08:00:51.121Z,79.79
2018-03-22T08:07:48.413Z,80.07
2018-03-22T08:08:29.402Z,79.31
2018-03-22T08:09:11.052Z,79.54
2018-03-22T08:09:51.976Z,78.97
2018-03-22T08:10:32.906Z,79.06
2018-03-22T08:11:13.394Z,78.88
2018-03-22T08:11:56.230Z,79.25
2018-03-22T08:12:37.388Z,78.88
2018-03-22T08:13:17.865Z,78.69
2018-03-22T08:13:58.437Z,79.06
2018-03-22T08:14:39.038Z,79.16
2018-03-22T08:15:20.950Z,79.44
2018-03-22T08:16:01.419Z,79.88
2018-03-22T08:16:41.740Z,79.97
2018-03-22T08:17:22.134Z,79.79
2018-03-22T08:18:02.807Z,79.92
2018-03-22T08:18:43.249Z,79.31
2018-03-22T08:19:25.201Z,79.25
2018-03-22T08:20:05.683Z,79.83
2018-03-22T08:20:46.722Z,78.88
2018-03-22T08:21:27.034Z,78.4
2018-03-22T08:22:07.397Z,78.5
2018-03-22T08:22:47.987Z,78.5
2018-03-22T08:23:28.450Z,77.92
2018-03-22T08:24:09.634Z,78.5
2018-03-22T08:24:51.590Z,77.73
2018-03-22T08:25:31.959Z,77.17
2018-03-22T08:26:12.156Z,77.83
2018-03-22T08:26:52.610Z,78.3
2018-03-22T08:27:33.074Z,78.4
2018-03-22T08:28:16.191Z,78.4
2018-03-22T08:28:56.661Z,78.5
2018-03-22T08:29:37.175Z,77.83
2018-03-22T08:30:18.153Z,77.55
2018-03-22T08:30:59.259Z,77.83
2018-03-22T08:31:39.609Z,77.73
2018-03-22T08:32:20.013Z,77.17
2018-03-22T08:33:00.494Z,76.88
2018-03-22T08:33:41.634Z,76.59
2018-03-22T08:34:23.650Z,76.4
2018-03-22T08:35:04.890Z,76.31
2018-03-22T08:35:47.148Z,77.26
2018-03-22T08:36:27.589Z,77.26
2018-03-22T08:37:07.917Z,77.73
2018-03-22T08:37:49.339Z,77.45
2018-03-22T08:38:30.649Z,77.83
2018-03-22T08:39:11.022Z,77.17
2018-03-22T08:39:51.663Z,76.78
2018-03-22T08:40:32.044Z,77.26
2018-03-22T08:41:12.711Z,76.78
2018-03-22T08:41:52.992Z,76.5
2018-03-22T08:42:33.669Z,76.78
2018-03-22T08:43:14.104Z,77.26
2018-03-22T08:43:55.687Z,76.97
2018-03-22T08:44:35.752Z,75.64
2018-03-22T08:45:18.773Z,77.2
2018-03-22T08:45:59.273Z,77.01
2018-03-22T08:46:39.637Z,76.63
2018-03-22T08:47:20.081Z,77.01
2018-03-22T08:48:01.783Z,76.21
2018-03-22T08:48:42.151Z,76.63
2018-03-22T08:49:22.704Z,76.44
2018-03-22T08:50:06.917Z,76.06
2018-03-22T08:50:47.420Z,76.63
2018-03-22T08:51:27.897Z,76.92
2018-03-22T08:52:08.437Z,76.35
2018-03-22T08:52:49.620Z,75.87
2018-03-22T08:53:30.035Z,75.78
2018-03-22T08:54:10.445Z,76.44
2018-03-22T08:54:50.989Z,76.82
2018-03-22T08:55:31.393Z,76.44
2018-03-22T08:56:12.744Z,76.82
2018-03-22T08:56:53.138Z,76.35
2018-03-22T08:57:33.546Z,76.88
2018-03-22T08:58:14.761Z,77.11
2018-03-22T08:58:55.200Z,77.3
2018-03-22T08:59:36.344Z,77.3
2018-03-22T09:00:17.744Z,77.26
2018-03-22T09:00:58.647Z,76.97
2018-03-22T09:01:39.637Z,76.97
2018-03-22T09:02:20.259Z,77.07
2018-03-22T09:03:02.290Z,77.17
2018-03-22T09:03:42.718Z,77.73
2018-03-22T09:04:23.152Z,77.36
2018-03-22T09:05:04.147Z,76.97
2018-03-22T09:05:45.311Z,77.07
2018-03-22T09:06:25.633Z,77.11
2018-03-22T09:07:07.058Z,77.01
2018-03-22T09:07:46.818Z,77.2
2018-03-22T09:08:27.136Z,76.73
2018-03-22T09:09:10.226Z,76.92
2018-03-22T09:09:51.516Z,76.35
2018-03-22T09:10:31.932Z,76.35
2018-03-22T09:11:12.372Z,76.35
2018-03-22T09:11:53.805Z,76.35
2018-03-22T09:12:34.365Z,76.35
2018-03-22T09:13:14.833Z,75.96
2018-03-22T09:13:55.850Z,76.44
2018-03-22T09:14:36.243Z,77.01
2018-03-22T09:15:16.686Z,77.01
2018-03-22T09:15:57.135Z,76.92
2018-03-22T09:16:37.462Z,76.63
2018-03-22T09:17:18.084Z,77.39
2018-03-22T09:17:58.477Z,76.73
2018-03-22T09:18:38.939Z,76.82
2018-03-22T09:19:19.402Z,76.63
2018-03-22T09:20:00.720Z,75.78
2018-03-22T09:20:41.238Z,76.73
2018-03-22T09:21:22.455Z,76.73
2018-03-22T09:22:02.914Z,76.82
2018-03-22T09:22:43.544Z,75.87
2018-03-22T09:23:23.898Z,75.78
2018-03-22T09:24:04.277Z,76.25
2018-03-22T09:24:44.966Z,76.54
2018-03-22T09:25:25.286Z,77.11
2018-03-22T09:26:06.417Z,76.82
2018-03-22T09:26:47.700Z,76.82
2018-03-22T09:27:28.055Z,76.35
2018-03-22T09:28:08.502Z,76.25
2018-03-22T09:28:48.867Z,76.82
2018-03-22T09:29:29.365Z,76.82
2018-03-22T09:30:09.793Z,76.06
2018-03-22T09:30:50.227Z,75.87
2018-03-22T09:31:30.622Z,75.43
2018-03-22T09:32:11.985Z,74.96
2018-03-22T09:32:53.235Z,75.34
2018-03-22T09:33:33.674Z,75.15
2018-03-22T09:34:14.782Z,74.48
2018-03-22T09:34:55.361Z,74.77
2018-03-22T09:35:38.257Z,74.73
2018-03-22T09:36:20.399Z,75.05
2018-03-22T09:37:00.801Z,75.02
2018-03-22T09:37:42.282Z,75.11
2018-03-22T09:38:22.461Z,75.4
2018-03-22T09:39:03.966Z,75.68
2018-03-22T09:39:44.396Z,76.63
2018-03-22T09:40:24.800Z,76.06
2018-03-22T09:41:06.273Z,76.06
2018-03-22T09:41:46.726Z,76.16
2018-03-22T09:42:27.106Z,77.01
2018-03-22T09:43:07.589Z,76.54
2018-03-22T09:43:48.111Z,76.63
2018-03-22T09:44:28.461Z,76.92
2018-03-22T09:45:11.020Z,77.15
2018-03-22T09:45:51.476Z,76.39
2018-03-22T09:46:31.852Z,75.15
2018-03-22T09:47:12.376Z,74.77
2018-03-22T09:47:54.591Z,74.48
2018-03-22T09:48:35.484Z,74.2